sensor_id;sensor_type;location;lat;lon;timestamp;temperature;humidity
7455;HTU21D;3769;51.208;4.454;2024-02-23T00:03:10;5.7;97.1
7455;HTU21D;3769;51.208;4.454;2024-02-23T00:08:10;5.8;97.1
7455;HTU21D;3769;51.208;4.454;2024-02-23T00:13:10;5.8;97.1
7455;HTU21D;3769;51.208;4.454;2024-02-23T00:18:10;5.7;97.1
7455;HTU21D;3769;51.208;4.454;2024-02-23T00:23:10;5.8;97.1
7455;HTU21D;3769;51.208;4.454;2024-02-23T00:28:10;6;97.1
7455;HTU21D;3769;51.208;4.454;2024-02-23T00:33:10;6;97.1
7455;HTU21D;3769;51.208;4.454;2024-02-23T00:38:10;5.9;97.1
7455;HTU21D;3769;51.208;4.454;2024-02-23T00:43:10;5.9;97.1
7455;HTU21D;3769;51.208;4.454;2024-02-23T00:48:10;5.9;97.1
7455;HTU21D;3769;51.208;4.454;2024-02-23T00:53:10;5.9;97.1
7455;HTU21D;3769;51.208;4.454;2024-02-23T00:58:10;5.9;97.1
7455;HTU21D;3769;51.208;4.454;2024-02-23T01:03:10;5.9;97.1
7455;HTU21D;3769;51.208;4.454;2024-02-23T01:08:10;6;97.1
7455;HTU21D;3769;51.208;4.454;2024-02-23T01:13:10;6.1;97.2
7455;HTU21D;3769;51.208;4.454;2024-02-23T01:18:10;6;97.1
7455;HTU21D;3769;51.208;4.454;2024-02-23T01:23:10;6.1;97.2
7455;HTU21D;3769;51.208;4.454;2024-02-23T01:28:10;5.8;97.1
7455;HTU21D;3769;51.208;4.454;2024-02-23T01:33:10;5.8;97.1
7455;HTU21D;3769;51.208;4.454;2024-02-23T01:38:10;5.8;97.1
7455;HTU21D;3769;51.208;4.454;2024-02-23T01:43:10;5.7;97.1
7455;HTU21D;3769;51.208;4.454;2024-02-23T01:48:10;5.8;97.1
7455;HTU21D;3769;51.208;4.454;2024-02-23T01:53:10;5.8;97.1
7455;HTU21D;3769;51.208;4.454;2024-02-23T01:58:10;5.8;97.1
7455;HTU21D;3769;51.208;4.454;2024-02-23T02:03:10;5.6;97.1
7455;HTU21D;3769;51.208;4.454;2024-02-23T02:08:10;5.6;97.1
7455;HTU21D;3769;51.208;4.454;2024-02-23T02:13:10;5.6;97.1
7455;HTU21D;3769;51.208;4.454;2024-02-23T02:18:10;5.6;97.1
7455;HTU21D;3769;51.208;4.454;2024-02-23T02:23:10;5.8;97.1
7455;HTU21D;3769;51.208;4.454;2024-02-23T02:28:10;5.5;97.1
7455;HTU21D;3769;51.208;4.454;2024-02-23T02:33:10;5.7;97.1
7455;HTU21D;3769;51.208;4.454;2024-02-23T02:38:11;5.6;97.1
7455;HTU21D;3769;51.208;4.454;2024-02-23T02:43:10;5.6;97.1
7455;HTU21D;3769;51.208;4.454;2024-02-23T02:48:10;5.7;97.1
7455;HTU21D;3769;51.208;4.454;2024-02-23T02:53:10;5.7;97.1
7455;HTU21D;3769;51.208;4.454;2024-02-23T02:58:11;5.7;97.1
7455;HTU21D;3769;51.208;4.454;2024-02-23T03:03:10;5.6;97.1
7455;HTU21D;3769;51.208;4.454;2024-02-23T03:08:10;5.7;97.1
7455;HTU21D;3769;51.208;4.454;2024-02-23T03:13:10;5.9;97.1
7455;HTU21D;3769;51.208;4.454;2024-02-23T03:18:10;5.7;97.1
7455;HTU21D;3769;51.208;4.454;2024-02-23T03:23:11;5.7;97.1
7455;HTU21D;3769;51.208;4.454;2024-02-23T03:28:10;5.8;97.1
7455;HTU21D;3769;51.208;4.454;2024-02-23T03:33:10;5.6;97.1
7455;HTU21D;3769;51.208;4.454;2024-02-23T03:38:10;5.8;97.1
7455;HTU21D;3769;51.208;4.454;2024-02-23T03:43:10;5.8;97.1
7455;HTU21D;3769;51.208;4.454;2024-02-23T03:48:10;5.7;97.1
7455;HTU21D;3769;51.208;4.454;2024-02-23T03:53:10;6;97.1
7455;HTU21D;3769;51.208;4.454;2024-02-23T03:58:10;6;97.1
7455;HTU21D;3769;51.208;4.454;2024-02-23T04:03:10;5.9;97.1
7455;HTU21D;3769;51.208;4.454;2024-02-23T04:08:10;5.8;97.1
7455;HTU21D;3769;51.208;4.454;2024-02-23T04:13:10;5.8;97.1
7455;HTU21D;3769;51.208;4.454;2024-02-23T04:18:10;5.9;97.1
7455;HTU21D;3769;51.208;4.454;2024-02-23T04:23:10;6.1;97.2
7455;HTU21D;3769;51.208;4.454;2024-02-23T04:28:10;5.9;97.1
7455;HTU21D;3769;51.208;4.454;2024-02-23T04:33:10;5.7;97.1
7455;HTU21D;3769;51.208;4.454;2024-02-23T04:38:11;5.7;97.1
7455;HTU21D;3769;51.208;4.454;2024-02-23T04:43:10;5.8;97.1
7455;HTU21D;3769;51.208;4.454;2024-02-23T04:48:10;5.9;97.1
7455;HTU21D;3769;51.208;4.454;2024-02-23T04:53:10;5.9;97.1
7455;HTU21D;3769;51.208;4.454;2024-02-23T04:58:10;5.9;97.1
7455;HTU21D;3769;51.208;4.454;2024-02-23T05:03:10;5.8;97.1
7455;HTU21D;3769;51.208;4.454;2024-02-23T05:08:10;5.8;97.1
7455;HTU21D;3769;51.208;4.454;2024-02-23T05:13:10;5.9;97.1
7455;HTU21D;3769;51.208;4.454;2024-02-23T05:18:10;5.9;97.1
7455;HTU21D;3769;51.208;4.454;2024-02-23T05:23:10;5.9;97.1
7455;HTU21D;3769;51.208;4.454;2024-02-23T05:28:10;5.8;97.1
7455;HTU21D;3769;51.208;4.454;2024-02-23T05:33:10;5.9;97.1
7455;HTU21D;3769;51.208;4.454;2024-02-23T05:38:10;5.9;97.1
7455;HTU21D;3769;51.208;4.454;2024-02-23T05:43:10;5.8;97.1
7455;HTU21D;3769;51.208;4.454;2024-02-23T05:48:10;5.9;97.1
7455;HTU21D;3769;51.208;4.454;2024-02-23T05:53:10;5.9;97.1
7455;HTU21D;3769;51.208;4.454;2024-02-23T05:58:10;6;97.1
7455;HTU21D;3769;51.208;4.454;2024-02-23T06:03:10;6.1;97.2
7455;HTU21D;3769;51.208;4.454;2024-02-23T06:08:10;6;97.2
7455;HTU21D;3769;51.208;4.454;2024-02-23T06:13:10;5.9;97.1
7455;HTU21D;3769;51.208;4.454;2024-02-23T06:18:10;5.9;97.1
7455;HTU21D;3769;51.208;4.454;2024-02-23T06:23:10;6;97.2
7455;HTU21D;3769;51.208;4.454;2024-02-23T06:28:10;5.8;97.1
7455;HTU21D;3769;51.208;4.454;2024-02-23T06:33:10;5.9;97.1
7455;HTU21D;3769;51.208;4.454;2024-02-23T06:38:10;5.9;97.1
7455;HTU21D;3769;51.208;4.454;2024-02-23T06:43:10;5.9;97.1
7455;HTU21D;3769;51.208;4.454;2024-02-23T06:48:10;6.1;97.2
7455;HTU21D;3769;51.208;4.454;2024-02-23T06:53:10;6.1;97.2
7455;HTU21D;3769;51.208;4.454;2024-02-23T06:58:10;6;97.1
7455;HTU21D;3769;51.208;4.454;2024-02-23T07:03:10;6.1;97.2
7455;HTU21D;3769;51.208;4.454;2024-02-23T07:08:10;6.1;97.2
7455;HTU21D;3769;51.208;4.454;2024-02-23T07:13:10;6.2;97.2
7455;HTU21D;3769;51.208;4.454;2024-02-23T07:18:10;6.1;97.2
7455;HTU21D;3769;51.208;4.454;2024-02-23T07:23:10;6.1;97.2
7455;HTU21D;3769;51.208;4.454;2024-02-23T07:28:10;6.1;97.2
7455;HTU21D;3769;51.208;4.454;2024-02-23T07:33:10;6.2;97.2
7455;HTU21D;3769;51.208;4.454;2024-02-23T07:38:10;6.3;97.2
7455;HTU21D;3769;51.208;4.454;2024-02-23T07:43:10;6.4;97.2
7455;HTU21D;3769;51.208;4.454;2024-02-23T07:48:10;6.4;97.2
7455;HTU21D;3769;51.208;4.454;2024-02-23T07:53:10;6.6;97.2
7455;HTU21D;3769;51.208;4.454;2024-02-23T07:58:10;6.5;97.2
7455;HTU21D;3769;51.208;4.454;2024-02-23T08:03:10;6.6;97.2
7455;HTU21D;3769;51.208;4.454;2024-02-23T08:08:10;6.5;97.2
7455;HTU21D;3769;51.208;4.454;2024-02-23T08:13:10;6.4;97.2
7455;HTU21D;3769;51.208;4.454;2024-02-23T08:18:10;6.5;97.2
7455;HTU21D;3769;51.208;4.454;2024-02-23T08:23:10;6.3;97.2
7455;HTU21D;3769;51.208;4.454;2024-02-23T08:28:10;6.1;97.2
7455;HTU21D;3769;51.208;4.454;2024-02-23T08:33:10;6;97.1
7455;HTU21D;3769;51.208;4.454;2024-02-23T08:38:10;5.9;97.1
7455;HTU21D;3769;51.208;4.454;2024-02-23T08:43:10;6.1;97.2
7455;HTU21D;3769;51.208;4.454;2024-02-23T08:48:10;6.1;97.2
7455;HTU21D;3769;51.208;4.454;2024-02-23T08:53:10;6;97.1
7455;HTU21D;3769;51.208;4.454;2024-02-23T08:58:10;6.1;97.2
7455;HTU21D;3769;51.208;4.454;2024-02-23T09:03:10;6.1;97.2
7455;HTU21D;3769;51.208;4.454;2024-02-23T09:08:10;6.1;97.2
7455;HTU21D;3769;51.208;4.454;2024-02-23T09:13:10;6.4;97.2
7455;HTU21D;3769;51.208;4.454;2024-02-23T09:18:10;6.4;97.2
7455;HTU21D;3769;51.208;4.454;2024-02-23T09:23:10;6.4;97.2
7455;HTU21D;3769;51.208;4.454;2024-02-23T09:28:10;6.5;97.2
7455;HTU21D;3769;51.208;4.454;2024-02-23T09:33:10;6.5;97.2
7455;HTU21D;3769;51.208;4.454;2024-02-23T09:38:10;6.7;97.3
7455;HTU21D;3769;51.208;4.454;2024-02-23T09:43:10;6.8;97.3
7455;HTU21D;3769;51.208;4.454;2024-02-23T09:48:10;7;97.3
7455;HTU21D;3769;51.208;4.454;2024-02-23T09:53:10;7;97.3
7455;HTU21D;3769;51.208;4.454;2024-02-23T09:58:10;7.1;97.3
7455;HTU21D;3769;51.208;4.454;2024-02-23T10:03:10;7.2;97.3
7455;HTU21D;3769;51.208;4.454;2024-02-23T10:08:10;7.2;97.3
7455;HTU21D;3769;51.208;4.454;2024-02-23T10:13:10;7.3;97.4
7455;HTU21D;3769;51.208;4.454;2024-02-23T10:18:10;7.3;97.4
7455;HTU21D;3769;51.208;4.454;2024-02-23T10:23:10;7.5;97.4
7455;HTU21D;3769;51.208;4.454;2024-02-23T10:28:10;7.5;97.4
7455;HTU21D;3769;51.208;4.454;2024-02-23T10:33:10;7.5;97.4
7455;HTU21D;3769;51.208;4.454;2024-02-23T10:38:10;7.7;97.4
7455;HTU21D;3769;51.208;4.454;2024-02-23T10:43:12;7.8;97.4
7455;HTU21D;3769;51.208;4.454;2024-02-23T10:48:10;7.7;97.4
7455;HTU21D;3769;51.208;4.454;2024-02-23T10:53:10;7.8;97.4
7455;HTU21D;3769;51.208;4.454;2024-02-23T10:58:10;7.8;97.4
7455;HTU21D;3769;51.208;4.454;2024-02-23T11:03:10;7.8;97.4
7455;HTU21D;3769;51.208;4.454;2024-02-23T11:08:10;7.9;97.4
7455;HTU21D;3769;51.208;4.454;2024-02-23T11:13:10;7.9;97.4
7455;HTU21D;3769;51.208;4.454;2024-02-23T11:18:27;8.2;97.5
7455;HTU21D;3769;51.208;4.454;2024-02-23T11:23:13;8.1;97.5
7455;HTU21D;3769;51.208;4.454;2024-02-23T11:28:20;8.7;97.6
7455;HTU21D;3769;51.208;4.454;2024-02-23T11:33:11;8.9;97.6
7455;HTU21D;3769;51.208;4.454;2024-02-23T11:38:10;9.1;97.6
7455;HTU21D;3769;51.208;4.454;2024-02-23T11:43:10;9.3;97.6
7455;HTU21D;3769;51.208;4.454;2024-02-23T11:48:10;9;97.6
7455;HTU21D;3769;51.208;4.454;2024-02-23T11:53:10;8.8;97.6
7455;HTU21D;3769;51.208;4.454;2024-02-23T11:58:10;8.7;97.5
7455;HTU21D;3769;51.208;4.454;2024-02-23T12:03:10;8.5;97.5
7455;HTU21D;3769;51.208;4.454;2024-02-23T12:08:10;8.5;97.5
7455;HTU21D;3769;51.208;4.454;2024-02-23T12:13:10;8.6;97.5
7455;HTU21D;3769;51.208;4.454;2024-02-23T12:18:10;8.8;97.6
7455;HTU21D;3769;51.208;4.454;2024-02-23T12:23:11;8.7;97.6
7455;HTU21D;3769;51.208;4.454;2024-02-23T12:28:10;8.5;97.5
7455;HTU21D;3769;51.208;4.454;2024-02-23T12:33:10;8.5;97.5
7455;HTU21D;3769;51.208;4.454;2024-02-23T12:38:10;8.6;97.5
7455;HTU21D;3769;51.208;4.454;2024-02-23T12:43:10;8.6;97.5
7455;HTU21D;3769;51.208;4.454;2024-02-23T12:48:10;8.7;97.5
7455;HTU21D;3769;51.208;4.454;2024-02-23T12:53:13;9;97.6
7455;HTU21D;3769;51.208;4.454;2024-02-23T12:58:10;8.8;97.6
7455;HTU21D;3769;51.208;4.454;2024-02-23T13:03:10;8.5;97.5
7455;HTU21D;3769;51.208;4.454;2024-02-23T13:08:10;8.7;97.5
7455;HTU21D;3769;51.208;4.454;2024-02-23T13:13:10;9;97.6
7455;HTU21D;3769;51.208;4.454;2024-02-23T13:18:10;8.9;97.6
7455;HTU21D;3769;51.208;4.454;2024-02-23T13:23:11;8.9;97.6
7455;HTU21D;3769;51.208;4.454;2024-02-23T13:28:10;9;97.6
7455;HTU21D;3769;51.208;4.454;2024-02-23T13:33:11;8.9;97.6
7455;HTU21D;3769;51.208;4.454;2024-02-23T13:38:10;8.9;97.6
7455;HTU21D;3769;51.208;4.454;2024-02-23T13:43:10;9.1;97.6
7455;HTU21D;3769;51.208;4.454;2024-02-23T13:48:10;9.2;97.6
7455;HTU21D;3769;51.208;4.454;2024-02-23T13:53:11;9.2;97.6
7455;HTU21D;3769;51.208;4.454;2024-02-23T13:58:10;9.3;97.6
7455;HTU21D;3769;51.208;4.454;2024-02-23T14:03:11;9.1;97.6
7455;HTU21D;3769;51.208;4.454;2024-02-23T14:08:10;9.2;97.6
7455;HTU21D;3769;51.208;4.454;2024-02-23T14:13:10;9.1;97.6
7455;HTU21D;3769;51.208;4.454;2024-02-23T14:18:10;9.3;97.6
7455;HTU21D;3769;51.208;4.454;2024-02-23T14:23:10;9.3;97.6
7455;HTU21D;3769;51.208;4.454;2024-02-23T14:28:10;9.6;97.7
7455;HTU21D;3769;51.208;4.454;2024-02-23T14:33:10;9.3;97.6
7455;HTU21D;3769;51.208;4.454;2024-02-23T14:38:10;9.1;97.6
7455;HTU21D;3769;51.208;4.454;2024-02-23T14:43:10;9.1;97.6
7455;HTU21D;3769;51.208;4.454;2024-02-23T14:48:10;9.1;97.6
7455;HTU21D;3769;51.208;4.454;2024-02-23T14:53:10;9;97.6
7455;HTU21D;3769;51.208;4.454;2024-02-23T14:58:10;8.9;97.6
7455;HTU21D;3769;51.208;4.454;2024-02-23T15:03:10;8.8;97.6
7455;HTU21D;3769;51.208;4.454;2024-02-23T15:08:10;8.9;97.6
7455;HTU21D;3769;51.208;4.454;2024-02-23T15:13:10;9;97.6
7455;HTU21D;3769;51.208;4.454;2024-02-23T15:18:10;9.1;97.6
7455;HTU21D;3769;51.208;4.454;2024-02-23T15:23:10;9.1;97.6
7455;HTU21D;3769;51.208;4.454;2024-02-23T15:28:10;9.1;97.6
7455;HTU21D;3769;51.208;4.454;2024-02-23T15:33:10;9.1;97.6
7455;HTU21D;3769;51.208;4.454;2024-02-23T15:38:10;8.8;97.6
7455;HTU21D;3769;51.208;4.454;2024-02-23T15:43:10;8.5;97.5
7455;HTU21D;3769;51.208;4.454;2024-02-23T15:48:10;8.4;97.5
7455;HTU21D;3769;51.208;4.454;2024-02-23T15:53:10;8.6;97.5
7455;HTU21D;3769;51.208;4.454;2024-02-23T15:58:10;8.5;97.5
7455;HTU21D;3769;51.208;4.454;2024-02-23T16:03:10;8.4;97.5
7455;HTU21D;3769;51.208;4.454;2024-02-23T16:08:12;7.8;97.4
7455;HTU21D;3769;51.208;4.454;2024-02-23T16:13:10;7.1;97.3
7455;HTU21D;3769;51.208;4.454;2024-02-23T16:18:10;7.1;97.3
7455;HTU21D;3769;51.208;4.454;2024-02-23T16:23:10;7.2;97.3
7455;HTU21D;3769;51.208;4.454;2024-02-23T16:28:10;7.1;97.3
7455;HTU21D;3769;51.208;4.454;2024-02-23T16:33:10;7.1;97.3
7455;HTU21D;3769;51.208;4.454;2024-02-23T16:38:10;6.9;97.3
7455;HTU21D;3769;51.208;4.454;2024-02-23T16:43:10;7.1;97.3
7455;HTU21D;3769;51.208;4.454;2024-02-23T16:48:10;6.9;97.3
7455;HTU21D;3769;51.208;4.454;2024-02-23T16:53:10;7;97.3
7455;HTU21D;3769;51.208;4.454;2024-02-23T16:58:10;6.8;97.3
7455;HTU21D;3769;51.208;4.454;2024-02-23T17:03:10;6.8;97.3
7455;HTU21D;3769;51.208;4.454;2024-02-23T17:08:10;6.8;97.3
7455;HTU21D;3769;51.208;4.454;2024-02-23T17:13:10;6.7;97.3
7455;HTU21D;3769;51.208;4.454;2024-02-23T17:18:10;6.7;97.2
7455;HTU21D;3769;51.208;4.454;2024-02-23T17:23:10;6.8;97.3
7455;HTU21D;3769;51.208;4.454;2024-02-23T17:28:10;7.1;97.3
7455;HTU21D;3769;51.208;4.454;2024-02-23T17:33:10;7.1;97.3
7455;HTU21D;3769;51.208;4.454;2024-02-23T17:38:10;6.8;97.3
7455;HTU21D;3769;51.208;4.454;2024-02-23T17:43:10;6.8;97.3
7455;HTU21D;3769;51.208;4.454;2024-02-23T17:48:10;6.7;97.3
7455;HTU21D;3769;51.208;4.454;2024-02-23T17:53:10;6.9;97.3
7455;HTU21D;3769;51.208;4.454;2024-02-23T17:58:10;7;97.3
7455;HTU21D;3769;51.208;4.454;2024-02-23T18:03:10;7;97.3
7455;HTU21D;3769;51.208;4.454;2024-02-23T18:08:10;7.4;97.4
7455;HTU21D;3769;51.208;4.454;2024-02-23T18:13:10;7.1;97.3
7455;HTU21D;3769;51.208;4.454;2024-02-23T18:18:10;7.3;97.3
7455;HTU21D;3769;51.208;4.454;2024-02-23T18:23:10;7.3;97.3
7455;HTU21D;3769;51.208;4.454;2024-02-23T18:28:10;7.6;97.4
7455;HTU21D;3769;51.208;4.454;2024-02-23T18:33:10;7.6;97.4
7455;HTU21D;3769;51.208;4.454;2024-02-23T18:38:10;7.5;97.4
7455;HTU21D;3769;51.208;4.454;2024-02-23T18:43:10;7.4;97.4
7455;HTU21D;3769;51.208;4.454;2024-02-23T18:48:10;7.7;97.4
7455;HTU21D;3769;51.208;4.454;2024-02-23T18:53:10;7.5;97.4
7455;HTU21D;3769;51.208;4.454;2024-02-23T18:58:10;7.5;97.4
7455;HTU21D;3769;51.208;4.454;2024-02-23T19:03:11;7.1;97.3
7455;HTU21D;3769;51.208;4.454;2024-02-23T19:08:10;6.6;97.2
7455;HTU21D;3769;51.208;4.454;2024-02-23T19:13:10;6;97.1
7455;HTU21D;3769;51.208;4.454;2024-02-23T19:18:10;5.7;97.1
7455;HTU21D;3769;51.208;4.454;2024-02-23T19:23:10;5.7;97.1
7455;HTU21D;3769;51.208;4.454;2024-02-23T19:28:10;6;97.2
7455;HTU21D;3769;51.208;4.454;2024-02-23T19:33:10;6.3;97.2
7455;HTU21D;3769;51.208;4.454;2024-02-23T19:38:10;6.1;97.2
7455;HTU21D;3769;51.208;4.454;2024-02-23T19:43:10;6.1;97.2
7455;HTU21D;3769;51.208;4.454;2024-02-23T19:48:10;6;97.1
7455;HTU21D;3769;51.208;4.454;2024-02-23T19:53:10;6;97.1
7455;HTU21D;3769;51.208;4.454;2024-02-23T19:58:10;6.2;97.2
7455;HTU21D;3769;51.208;4.454;2024-02-23T20:03:10;6.1;97.2
7455;HTU21D;3769;51.208;4.454;2024-02-23T20:08:10;5.7;97.1
7455;HTU21D;3769;51.208;4.454;2024-02-23T20:13:10;5.8;97.1
7455;HTU21D;3769;51.208;4.454;2024-02-23T20:18:10;6;97.2
7455;HTU21D;3769;51.208;4.454;2024-02-23T20:23:10;6.4;97.2
7455;HTU21D;3769;51.208;4.454;2024-02-23T20:28:10;6.3;97.2
7455;HTU21D;3769;51.208;4.454;2024-02-23T20:33:10;6.1;97.2
7455;HTU21D;3769;51.208;4.454;2024-02-23T20:38:10;6.2;97.2
7455;HTU21D;3769;51.208;4.454;2024-02-23T20:43:10;6.3;97.2
7455;HTU21D;3769;51.208;4.454;2024-02-23T20:48:10;6.3;97.2
7455;HTU21D;3769;51.208;4.454;2024-02-23T20:53:10;6.4;97.2
7455;HTU21D;3769;51.208;4.454;2024-02-23T20:58:10;6.3;97.2
7455;HTU21D;3769;51.208;4.454;2024-02-23T21:03:10;6.1;97.2
7455;HTU21D;3769;51.208;4.454;2024-02-23T21:08:10;6.3;97.2
7455;HTU21D;3769;51.208;4.454;2024-02-23T21:13:11;6.2;97.2
7455;HTU21D;3769;51.208;4.454;2024-02-23T21:18:10;6.1;97.2
7455;HTU21D;3769;51.208;4.454;2024-02-23T21:23:11;5.9;97.1
7455;HTU21D;3769;51.208;4.454;2024-02-23T21:28:10;5.9;97.1
7455;HTU21D;3769;51.208;4.454;2024-02-23T21:33:10;5.8;97.1
7455;HTU21D;3769;51.208;4.454;2024-02-23T21:38:10;5.7;97.1
7455;HTU21D;3769;51.208;4.454;2024-02-23T21:43:10;5.9;97.1
7455;HTU21D;3769;51.208;4.454;2024-02-23T21:48:10;6;97.1
7455;HTU21D;3769;51.208;4.454;2024-02-23T21:53:10;6;97.2
7455;HTU21D;3769;51.208;4.454;2024-02-23T21:58:10;5.8;97.1
7455;HTU21D;3769;51.208;4.454;2024-02-23T22:03:10;5.8;97.1
7455;HTU21D;3769;51.208;4.454;2024-02-23T22:08:10;5.9;97.1
7455;HTU21D;3769;51.208;4.454;2024-02-23T22:13:10;5.7;97.1
7455;HTU21D;3769;51.208;4.454;2024-02-23T22:18:10;6.2;97.2
7455;HTU21D;3769;51.208;4.454;2024-02-23T22:23:10;5.8;97.1
7455;HTU21D;3769;51.208;4.454;2024-02-23T22:28:10;5.6;97.1
7455;HTU21D;3769;51.208;4.454;2024-02-23T22:33:10;5.6;97.1
7455;HTU21D;3769;51.208;4.454;2024-02-23T22:38:10;5.6;97.1
7455;HTU21D;3769;51.208;4.454;2024-02-23T22:43:10;5.6;97.1
7455;HTU21D;3769;51.208;4.454;2024-02-23T22:48:10;5.5;97.1
7455;HTU21D;3769;51.208;4.454;2024-02-23T22:53:10;5.7;97.1
7455;HTU21D;3769;51.208;4.454;2024-02-23T22:58:10;5.7;97.1
7455;HTU21D;3769;51.208;4.454;2024-02-23T23:03:10;6.1;97.2
7455;HTU21D;3769;51.208;4.454;2024-02-23T23:08:10;6.1;97.2
7455;HTU21D;3769;51.208;4.454;2024-02-23T23:13:10;6.1;97.2
7455;HTU21D;3769;51.208;4.454;2024-02-23T23:18:10;5.9;97.1
7455;HTU21D;3769;51.208;4.454;2024-02-23T23:23:10;5.8;97.1
7455;HTU21D;3769;51.208;4.454;2024-02-23T23:28:10;6;97.2
7455;HTU21D;3769;51.208;4.454;2024-02-23T23:33:10;6.1;97.2
7455;HTU21D;3769;51.208;4.454;2024-02-23T23:38:10;5.8;97.1
7455;HTU21D;3769;51.208;4.454;2024-02-23T23:43:10;5.8;97.1
7455;HTU21D;3769;51.208;4.454;2024-02-23T23:48:10;5.9;97.1
7455;HTU21D;3769;51.208;4.454;2024-02-23T23:53:10;5.9;97.1
7455;HTU21D;3769;51.208;4.454;2024-02-23T23:58:10;7.1;97.3
